Time;durP1;ratioP1;P1;durP2;ratioP2;P2;SDS_P1;SDS_P2;PMS_P1;PMS_P2;Temp;Humidity;BMP_temperature;BMP_pressure;BME280_temperature;BME280_humidity;BME280_pressure;Samples;Min_cycle;Max_cycle;Signal;HPM_P1;HPM_P2
2021/03/08 00:01:13;;;;;;;22.42;15.05;;;0.10;56.50;;;;;;5036467;28;20211;-77
2021/03/08 00:03:40;;;;;;;23.02;14.48;;;0.10;56.50;;;;;;5038112;28;20253;-76
2021/03/08 00:06:07;;;;;;;21.55;14.50;;;0.00;56.20;;;;;;5047086;28;20202;-76
2021/03/08 00:08:33;;;;;;;22.92;14.13;;;0.00;56.50;;;;;;5049078;28;20535;-77
2021/03/08 00:10:59;;;;;;;20.35;14.30;;;0.00;56.20;;;;;;5049640;28;20270;-76
2021/03/08 00:13:26;;;;;;;25.30;15.20;;;0.00;56.30;;;;;;5049900;28;20290;-76
2021/03/08 00:15:52;;;;;;;23.70;14.13;;;0.00;57.30;;;;;;5049176;28;20214;-76
2021/03/08 00:18:19;;;;;;;22.85;14.45;;;-0.10;57.80;;;;;;5048939;28;20211;-75
2021/03/08 00:20:46;;;;;;;22.38;14.32;;;-0.20;58.10;;;;;;5042695;28;20207;-77
2021/03/08 00:23:12;;;;;;;27.58;16.17;;;-0.20;58.60;;;;;;5048304;28;20230;-76
2021/03/08 00:25:39;;;;;;;23.25;14.85;;;-0.20;58.60;;;;;;5052027;28;20241;-75
2021/03/08 00:28:05;;;;;;;19.70;14.05;;;-0.20;58.00;;;;;;5052230;28;20213;-76
2021/03/08 00:30:32;;;;;;;21.15;14.05;;;-0.20;57.60;;;;;;5040911;28;20725;-75
2021/03/08 00:32:58;;;;;;;19.58;14.18;;;-0.10;55.30;;;;;;5033919;28;20269;-77
2021/03/08 00:35:25;;;;;;;19.00;12.63;;;0.10;52.80;;;;;;5033947;28;20214;-76
2021/03/08 00:37:52;;;;;;;21.73;13.30;;;0.20;51.10;;;;;;5034849;28;20269;-76
2021/03/08 00:40:20;;;;;;;20.83;12.82;;;0.30;51.30;;;;;;5037084;28;20679;-76
2021/03/08 00:42:47;;;;;;;20.90;13.25;;;0.20;51.10;;;;;;5037690;28;20230;-75
2021/03/08 00:45:16;;;;;;;22.92;15.52;;;0.20;51.20;;;;;;5036808;28;20755;-76
2021/03/08 00:47:43;;;;;;;23.15;14.00;;;0.20;51.10;;;;;;5036930;28;20715;-76
2021/03/08 00:50:14;;;;;;;24.15;15.63;;;0.10;51.10;;;;;;5036512;28;20292;-76
2021/03/08 00:52:41;;;;;;;22.58;14.85;;;0.00;52.00;;;;;;5036676;28;20202;-75
2021/03/08 00:55:10;;;;;;;21.20;15.15;;;-0.10;54.10;;;;;;5037319;28;20298;-75
2021/03/08 00:57:37;;;;;;;23.05;14.13;;;-0.10;54.30;;;;;;5037118;28;20632;-76
2021/03/08 01:00:06;;;;;;;20.95;14.05;;;-0.20;54.70;;;;;;5037724;28;20218;-76
2021/03/08 01:02:33;;;;;;;22.25;14.52;;;-0.20;55.20;;;;;;5038008;28;20231;-75
2021/03/08 01:04:59;;;;;;;21.20;13.75;;;-0.30;55.30;;;;;;5052566;28;20229;-75
2021/03/08 01:07:26;;;;;;;21.05;14.63;;;-0.40;55.80;;;;;;5046873;28;20238;-76
2021/03/08 01:09:52;;;;;;;24.83;14.35;;;-0.40;56.70;;;;;;5039458;28;20231;-75
2021/03/08 01:12:19;;;;;;;21.20;14.18;;;-0.40;56.90;;;;;;5038846;28;20226;-75
2021/03/08 01:14:46;;;;;;;23.92;15.00;;;-0.40;57.30;;;;;;5038158;28;20289;-75
2021/03/08 01:17:12;;;;;;;21.33;14.13;;;-0.30;57.30;;;;;;5033351;28;20302;-75
2021/03/08 01:19:39;;;;;;;24.48;14.70;;;-0.40;57.40;;;;;;5037107;28;20218;-75
2021/03/08 01:22:05;;;;;;;21.25;13.77;;;-0.40;57.70;;;;;;5042341;28;20258;-76
2021/03/08 01:24:32;;;;;;;17.98;13.25;;;-0.40;58.10;;;;;;5047547;28;20227;-76
2021/03/08 01:26:58;;;;;;;24.17;13.40;;;-0.40;57.90;;;;;;5038038;28;20699;-77
2021/03/08 01:29:26;;;;;;;21.95;14.05;;;-0.40;59.10;;;;;;5037306;28;20227;-74
2021/03/08 01:31:52;;;;;;;18.63;12.88;;;-0.40;58.30;;;;;;5038170;28;20559;-75
2021/03/08 01:34:18;;;;;;;21.23;13.77;;;-0.40;58.40;;;;;;5039449;28;20234;-75
2021/03/08 01:36:45;;;;;;;18.75;13.43;;;-0.50;58.60;;;;;;5046687;28;20221;-74
2021/03/08 01:39:11;;;;;;;17.30;11.65;;;-0.60;59.60;;;;;;5054869;28;20249;-74
2021/03/08 01:41:38;;;;;;;22.35;13.98;;;-0.60;59.60;;;;;;5053020;28;20207;-77
2021/03/08 01:44:05;;;;;;;23.25;14.05;;;-0.50;59.70;;;;;;5038501;28;20230;-75
2021/03/08 01:46:32;;;;;;;19.70;13.95;;;-0.50;59.70;;;;;;5037684;28;20210;-75
2021/03/08 01:48:59;;;;;;;22.58;14.32;;;-0.60;59.60;;;;;;5039170;28;20543;-75
2021/03/08 01:51:25;;;;;;;20.02;13.48;;;-0.50;60.40;;;;;;5036431;28;20211;-75
2021/03/08 01:53:52;;;;;;;23.25;14.50;;;-0.50;59.70;;;;;;5038520;28;20235;-75
2021/03/08 01:56:19;;;;;;;21.95;14.52;;;-0.50;59.70;;;;;;5039301;28;20207;-74
2021/03/08 01:58:45;;;;;;;23.10;15.50;;;-0.60;59.60;;;;;;5039893;28;20306;-75
2021/03/08 02:01:12;;;;;;;24.23;15.20;;;-0.70;61.00;;;;;;5041221;28;20256;-76
2021/03/08 02:03:40;;;;;;;24.58;15.70;;;-0.70;61.50;;;;;;5042109;28;20242;-75
2021/03/08 02:06:06;;;;;;;23.48;15.25;;;-0.70;61.70;;;;;;5057939;28;20187;-76
2021/03/08 02:08:33;;;;;;;27.50;16.02;;;-0.80;62.50;;;;;;5061210;28;20255;-75
2021/03/08 02:10:59;;;;;;;22.27;15.70;;;-0.70;62.80;;;;;;5060986;28;20182;-75
2021/03/08 02:13:39;;;;;;;30.40;18.05;;;-0.70;62.10;;;;;;5060306;28;20219;-75
2021/03/08 02:16:13;;;;;;;25.75;16.63;;;-0.70;62.30;;;;;;5060493;28;20179;-76
2021/03/08 02:18:49;;;;;;;25.10;15.52;;;-0.80;62.60;;;;;;5060604;28;20179;-75
2021/03/08 02:21:52;;;;;;;20.92;14.15;;;-0.90;63.00;;;;;;5060674;28;20179;-75
2021/03/08 02:24:55;;;;;;;28.63;16.50;;;-1.00;63.60;;;;;;5030744;28;20242;-76
2021/03/08 02:27:52;;;;;;;23.08;16.00;;;-0.80;64.20;;;;;;5058510;28;20195;-75
2021/03/08 02:30:37;;;;;;;23.52;15.20;;;-0.90;63.70;;;;;;5051391;28;20198;-75
2021/03/08 02:33:07;;;;;;;28.92;15.80;;;-1.00;63.60;;;;;;5051959;28;20318;-76
2021/03/08 02:35:36;;;;;;;27.75;16.80;;;-1.00;63.80;;;;;;5051669;28;20690;-76
2021/03/08 02:38:05;;;;;;;30.08;17.40;;;-1.10;64.10;;;;;;5056645;28;20203;-77
2021/03/08 02:40:35;;;;;;;22.02;15.57;;;-1.20;64.50;;;;;;5056011;28;20211;-76
2021/03/08 02:43:04;;;;;;;25.92;16.92;;;-1.30;65.40;;;;;;5055832;28;20278;-75
2021/03/08 02:45:33;;;;;;;23.85;17.20;;;-1.30;66.00;;;;;;5057266;28;20243;-76
2021/03/08 02:48:03;;;;;;;30.15;16.20;;;-1.40;66.40;;;;;;5057686;28;20211;-76
2021/03/08 02:50:34;;;;;;;24.08;15.70;;;-1.40;67.30;;;;;;5053952;28;20211;-77
2021/03/08 02:53:05;;;;;;;30.25;17.02;;;-1.50;67.50;;;;;;5053990;28;20254;-76
2021/03/08 02:55:37;;;;;;;24.58;15.80;;;-1.50;68.40;;;;;;5052516;28;20282;-75
2021/03/08 02:58:06;;;;;;;29.65;16.70;;;-1.40;68.10;;;;;;5052635;28;20199;-77
2021/03/08 03:00:34;;;;;;;23.88;16.95;;;-1.40;67.60;;;;;;5051649;28;20214;-76
2021/03/08 03:03:01;;;;;;;26.75;17.08;;;-1.40;67.60;;;;;;5051095;28;20246;-76
2021/03/08 03:05:28;;;;;;;25.77;15.98;;;-1.60;67.40;;;;;;5047670;28;20217;-75
2021/03/08 03:07:58;;;;;;;25.52;16.77;;;-1.60;68.50;;;;;;5047108;28;20238;-76
2021/03/08 03:10:28;;;;;;;28.55;16.50;;;-1.60;68.60;;;;;;5047509;28;20211;-76
2021/03/08 03:12:56;;;;;;;24.38;15.75;;;-1.60;69.20;;;;;;5044758;28;20223;-77
2021/03/08 03:15:23;;;;;;;24.83;16.08;;;-1.60;69.60;;;;;;5049054;28;20210;-77
2021/03/08 03:17:52;;;;;;;25.88;16.50;;;-1.60;69.90;;;;;;5038218;28;20261;-76
2021/03/08 03:20:20;;;;;;;28.00;16.20;;;-1.60;70.30;;;;;;5034588;28;20212;-77
2021/03/08 03:22:49;;;;;;;30.42;16.85;;;-1.70;70.70;;;;;;5045261;28;20253;-76
2021/03/08 03:25:20;;;;;;;28.70;18.23;;;-1.60;71.00;;;;;;5052250;28;20233;-76
2021/03/08 03:27:48;;;;;;;30.73;18.42;;;-1.70;70.90;;;;;;5052442;28;20207;-76
2021/03/08 03:30:17;;;;;;;29.77;17.10;;;-1.70;71.50;;;;;;5048720;28;20207;-74
2021/03/08 03:32:45;;;;;;;31.80;18.60;;;-1.80;71.50;;;;;;5051840;28;20265;-75
2021/03/08 03:35:13;;;;;;;30.30;17.45;;;-1.80;72.20;;;;;;5051894;28;20219;-75
2021/03/08 03:37:42;;;;;;;28.15;17.08;;;-1.80;72.20;;;;;;5035744;28;20238;-76
2021/03/08 03:40:13;;;;;;;28.05;16.73;;;-1.80;72.30;;;;;;5036283;28;20243;-76
2021/03/08 03:42:42;;;;;;;29.23;18.10;;;-2.00;72.30;;;;;;5035008;28;20210;-76
2021/03/08 03:45:10;;;;;;;29.83;18.70;;;-1.90;72.90;;;;;;5036542;28;20253;-75
2021/03/08 03:47:38;;;;;;;27.70;17.25;;;-1.80;73.40;;;;;;5035383;28;20203;-76
2021/03/08 03:50:05;;;;;;;25.55;17.73;;;-1.80;72.50;;;;;;5035882;28;20238;-76
2021/03/08 03:52:33;;;;;;;25.80;17.67;;;-1.80;72.40;;;;;;5049170;28;20208;-77
2021/03/08 03:54:59;;;;;;;30.45;16.27;;;-1.80;72.10;;;;;;5052034;28;20234;-75
2021/03/08 03:57:34;;;;;;;28.05;17.00;;;-2.00;71.70;;;;;;5037709;28;20295;-75
2021/03/08 04:00:05;;;;;;;29.48;17.73;;;-2.10;72.60;;;;;;5036456;28;20238;-76
2021/03/08 04:02:38;;;;;;;29.70;15.70;;;-2.00;74.00;;;;;;5036073;28;20292;-76
2021/03/08 04:05:06;;;;;;;23.52;14.85;;;-2.00;74.40;;;;;;5037284;28;20211;-77
2021/03/08 04:07:38;;;;;;;30.38;16.98;;;-2.00;75.00;;;;;;5038098;28;20207;-76
2021/03/08 04:10:10;;;;;;;27.95;16.80;;;-2.00;75.50;;;;;;5053815;28;20198;-75
2021/03/08 04:12:40;;;;;;;30.48;17.15;;;-2.00;75.50;;;;;;5051479;28;20192;-76
2021/03/08 04:15:09;;;;;;;29.42;17.27;;;-2.10;75.40;;;;;;5041983;28;20695;-76
2021/03/08 04:17:36;;;;;;;25.73;16.70;;;-2.10;75.40;;;;;;5036154;28;20211;-75
2021/03/08 04:20:05;;;;;;;32.42;16.30;;;-2.10;75.40;;;;;;5036126;28;20411;-75
2021/03/08 04:22:32;;;;;;;26.17;15.20;;;-2.10;75.40;;;;;;5036189;28;20283;-76
2021/03/08 04:25:03;;;;;;;28.13;15.68;;;-2.10;75.40;;;;;;5036750;28;20328;-75
2021/03/08 04:27:31;;;;;;;24.95;16.17;;;-2.20;75.60;;;;;;5037708;28;20203;-75
2021/03/08 04:29:58;;;;;;;32.60;18.00;;;-2.20;76.30;;;;;;5037182;28;20298;-75
2021/03/08 04:32:25;;;;;;;28.35;17.98;;;-2.20;76.50;;;;;;5035135;28;20286;-76
2021/03/08 04:34:53;;;;;;;29.50;17.60;;;-2.20;76.60;;;;;;5035250;28;20274;-76
2021/03/08 04:37:20;;;;;;;29.23;16.45;;;-2.30;77.20;;;;;;5035979;28;20203;-74
2021/03/08 04:39:47;;;;;;;27.58;17.13;;;-2.40;76.70;;;;;;5035612;28;20203;-75
2021/03/08 04:42:15;;;;;;;27.80;17.42;;;-2.40;77.60;;;;;;5036382;28;20626;-75
2021/03/08 04:44:48;;;;;;;28.90;17.17;;;-2.40;77.90;;;;;;5040785;28;20247;-76
2021/03/08 04:47:17;;;;;;;29.70;16.80;;;-2.40;78.40;;;;;;5042954;28;20192;-76
2021/03/08 04:49:46;;;;;;;27.70;18.23;;;-2.40;78.40;;;;;;5044004;28;20253;-75
2021/03/08 04:52:14;;;;;;;30.58;19.35;;;-2.40;78.60;;;;;;5046532;28;20226;-76
2021/03/08 04:54:43;;;;;;;25.42;14.95;;;-2.40;78.60;;;;;;5049501;28;20264;-75
2021/03/08 04:57:10;;;;;;;28.10;15.93;;;-2.40;78.80;;;;;;5047193;28;20243;-75
2021/03/08 04:59:38;;;;;;;28.00;17.02;;;-2.40;79.20;;;;;;5046837;28;20207;-75
2021/03/08 05:02:04;;;;;;;29.60;15.35;;;-2.40;79.10;;;;;;5042716;28;20242;-76
2021/03/08 05:04:32;;;;;;;26.10;16.58;;;-2.40;79.30;;;;;;5042129;28;20239;-76
2021/03/08 05:07:00;;;;;;;28.38;16.15;;;-2.50;78.80;;;;;;5048678;28;20234;-75
2021/03/08 05:09:28;;;;;;;26.83;16.77;;;-2.50;78.40;;;;;;5035442;28;20219;-75
2021/03/08 05:11:56;;;;;;;28.95;17.05;;;-2.60;79.00;;;;;;5035052;28;20234;-76
2021/03/08 05:14:25;;;;;;;23.25;16.05;;;-2.50;79.60;;;;;;5036426;28;20631;-76
2021/03/08 05:16:54;;;;;;;29.60;18.02;;;-2.60;79.20;;;;;;5046609;28;20238;-77
2021/03/08 05:19:23;;;;;;;30.40;17.65;;;-2.60;79.80;;;;;;5047658;28;20210;-76
2021/03/08 05:21:51;;;;;;;26.75;16.48;;;-2.60;80.80;;;;;;5029515;28;20238;-76
2021/03/08 05:24:18;;;;;;;25.52;16.33;;;-2.60;80.50;;;;;;5029511;28;20623;-75
2021/03/08 05:26:45;;;;;;;33.90;17.13;;;-2.50;80.60;;;;;;5032265;28;20196;-75
2021/03/08 05:29:12;;;;;;;28.50;16.67;;;-2.50;80.00;;;;;;5034373;28;20250;-75
2021/03/08 05:31:41;;;;;;;27.05;16.77;;;-2.60;79.80;;;;;;5030724;28;20215;-75
2021/03/08 05:34:10;;;;;;;28.15;15.23;;;-2.40;79.70;;;;;;5022716;28;20285;-75
2021/03/08 05:36:41;;;;;;;28.85;16.80;;;-2.40;79.90;;;;;;5028940;28;20219;-76
2021/03/08 05:39:08;;;;;;;26.05;15.25;;;-2.50;78.80;;;;;;5034381;28;20192;-75
2021/03/08 05:41:40;;;;;;;30.17;17.65;;;-2.50;79.20;;;;;;5027919;28;20204;-75
2021/03/08 05:44:08;;;;;;;27.35;16.83;;;-2.50;78.60;;;;;;5021422;28;20228;-76
2021/03/08 05:46:51;;;;;;;26.50;16.10;;;-2.50;78.40;;;;;;5022592;28;20218;-76
2021/03/08 05:49:52;;;;;;;28.05;15.88;;;-2.60;78.20;;;;;;5026698;28;20220;-77
2021/03/08 05:53:02;;;;;;;28.15;16.58;;;-2.70;78.50;;;;;;5025131;28;20303;-76
2021/03/08 05:55:46;;;;;;;32.78;16.98;;;-2.70;79.00;;;;;;5026072;28;20239;-76
2021/03/08 05:58:32;;;;;;;28.42;16.55;;;-2.60;80.00;;;;;;5027114;28;20196;-76
2021/03/08 06:01:19;;;;;;;22.08;14.85;;;-2.70;79.10;;;;;;5027191;28;20220;-75
2021/03/08 06:04:12;;;;;;;25.63;15.27;;;-2.70;79.10;;;;;;5024218;28;20228;-76
2021/03/08 06:07:23;;;;;;;26.30;16.20;;;-2.60;80.10;;;;;;5031240;28;20212;-74
2021/03/08 06:09:56;;;;;;;23.80;15.32;;;-2.60;80.00;;;;;;5029179;28;20192;-75
2021/03/08 06:12:26;;;;;;;29.73;16.75;;;-2.60;79.10;;;;;;5024215;28;20208;-77
2021/03/08 06:14:56;;;;;;;28.90;16.13;;;-2.60;79.00;;;;;;5029570;28;20219;-76
2021/03/08 06:17:23;;;;;;;27.35;16.77;;;-2.60;79.00;;;;;;5028446;28;20207;-75
2021/03/08 06:19:52;;;;;;;27.98;15.98;;;-2.50;79.80;;;;;;5024351;28;20239;-75
2021/03/08 06:22:20;;;;;;;23.85;15.15;;;-2.50;78.70;;;;;;5023930;28;20208;-76
2021/03/08 06:24:47;;;;;;;29.60;16.17;;;-2.50;77.60;;;;;;5026865;28;20258;-77
2021/03/08 06:27:15;;;;;;;25.77;14.73;;;-2.50;76.80;;;;;;5032902;28;20750;-77
2021/03/08 06:29:43;;;;;;;25.63;15.00;;;-2.50;76.70;;;;;;5030654;28;20208;-77
2021/03/08 06:32:11;;;;;;;29.38;16.33;;;-2.40;76.70;;;;;;5031076;28;20370;-75
2021/03/08 06:34:39;;;;;;;23.88;15.05;;;-2.40;76.00;;;;;;5030976;28;20231;-77
2021/03/08 06:37:07;;;;;;;24.77;16.60;;;-2.40;75.70;;;;;;5028834;28;20698;-77
2021/03/08 06:39:34;;;;;;;32.70;15.05;;;-2.30;75.20;;;;;;5029291;28;20228;-76
2021/03/08 06:42:02;;;;;;;25.75;16.65;;;-2.30;75.20;;;;;;5028570;28;20299;-78
2021/03/08 06:44:30;;;;;;;27.75;16.13;;;-2.30;75.20;;;;;;5023773;28;20228;-76
2021/03/08 06:46:57;;;;;;;26.63;16.90;;;-2.30;75.30;;;;;;5029958;28;20254;-76
2021/03/08 06:49:23;;;;;;;26.50;14.90;;;-2.30;75.20;;;;;;5028725;28;20250;-76
2021/03/08 06:52:04;;;;;;;33.30;17.70;;;-2.30;75.20;;;;;;5029657;28;20255;-78
2021/03/08 06:54:32;;;;;;;31.20;17.40;;;-2.20;75.30;;;;;;5028851;28;20255;-77
2021/03/08 06:56:58;;;;;;;22.17;14.73;;;-2.10;75.00;;;;;;5027409;28;20645;-76
2021/03/08 06:59:25;;;;;;;30.60;17.02;;;-2.00;74.20;;;;;;5028496;28;20222;-77
2021/03/08 07:01:53;;;;;;;24.95;16.15;;;-1.90;73.80;;;;;;5026510;28;20215;-77
2021/03/08 07:04:22;;;;;;;25.23;15.60;;;-1.80;72.50;;;;;;5028486;28;20322;-76
2021/03/08 07:06:59;;;;;;;26.45;16.80;;;-1.80;70.90;;;;;;5027834;28;20242;-76
2021/03/08 07:09:26;;;;;;;27.52;16.70;;;-1.60;69.60;;;;;;5026257;28;20208;-76
2021/03/08 07:12:07;;;;;;;25.15;15.35;;;-1.60;68.50;;;;;;5026255;28;20276;-76
2021/03/08 07:14:34;;;;;;;27.77;17.60;;;-1.50;67.50;;;;;;5023432;28;20238;-77
2021/03/08 07:17:01;;;;;;;27.30;16.63;;;-1.40;67.60;;;;;;5024469;28;20665;-78
2021/03/08 07:19:27;;;;;;;28.90;17.98;;;-1.40;66.90;;;;;;5024175;28;20211;-77
2021/03/08 07:21:55;;;;;;;31.23;16.70;;;-1.30;66.90;;;;;;5024090;28;20295;-75
2021/03/08 07:24:22;;;;;;;27.23;15.93;;;-1.20;66.90;;;;;;5023487;28;20238;-77
2021/03/08 07:26:50;;;;;;;31.50;18.35;;;-1.10;65.60;;;;;;5029464;28;20192;-76
2021/03/08 07:29:18;;;;;;;24.20;16.35;;;-1.00;65.00;;;;;;5031385;28;20214;-76
2021/03/08 07:31:46;;;;;;;25.88;17.75;;;-0.80;63.90;;;;;;5029833;28;20227;-76
2021/03/08 07:34:14;;;;;;;28.35;17.00;;;-0.80;62.90;;;;;;5030289;28;20232;-76
2021/03/08 07:36:42;;;;;;;30.13;17.52;;;-0.60;62.50;;;;;;5031697;28;20210;-76
2021/03/08 07:39:10;;;;;;;26.33;16.42;;;-0.50;61.10;;;;;;5032000;28;20294;-75
2021/03/08 07:41:49;;;;;;;24.73;14.85;;;-0.50;59.70;;;;;;5033986;28;20215;-76
2021/03/08 07:44:17;;;;;;;23.08;14.73;;;-0.40;59.20;;;;;;5033458;28;20290;-76
2021/03/08 07:46:43;;;;;;;24.10;15.23;;;-0.30;58.60;;;;;;5031526;28;20215;-76
2021/03/08 07:49:10;;;;;;;23.75;14.45;;;-0.30;56.80;;;;;;5027135;28;20275;-77
2021/03/08 07:51:37;;;;;;;24.88;16.00;;;-0.20;57.00;;;;;;5021723;28;20285;-77
2021/03/08 07:54:05;;;;;;;22.08;14.60;;;-0.10;56.60;;;;;;5033092;28;20230;-76
2021/03/08 07:56:32;;;;;;;22.90;14.10;;;0.10;56.60;;;;;;5022137;28;20291;-77
2021/03/08 07:58:59;;;;;;;22.27;14.30;;;0.20;55.10;;;;;;5027778;28;20235;-78
2021/03/08 08:01:26;;;;;;;22.23;14.68;;;0.20;54.80;;;;;;5027690;28;20579;-78
2021/03/08 08:03:53;;;;;;;18.17;12.93;;;0.30;54.90;;;;;;5036594;28;20220;-77
2021/03/08 08:06:21;;;;;;;23.70;15.18;;;0.40;54.30;;;;;;5044689;28;20245;-78
2021/03/08 08:08:51;;;;;;;25.13;14.65;;;0.50;53.60;;;;;;5046676;28;20207;-77
2021/03/08 08:11:19;;;;;;;18.85;13.85;;;0.70;53.90;;;;;;5040213;28;20199;-77
2021/03/08 08:13:48;;;;;;;18.88;13.60;;;0.80;51.70;;;;;;5037855;28;20254;-77
2021/03/08 08:16:16;;;;;;;19.48;12.43;;;0.90;51.80;;;;;;5018168;28;20207;-77
2021/03/08 08:18:44;;;;;;;18.90;13.23;;;0.90;50.60;;;;;;5019287;28;20290;-78
2021/03/08 08:21:13;;;;;;;20.45;13.30;;;0.90;50.00;;;;;;5017564;28;20207;-78
2021/03/08 08:23:41;;;;;;;21.33;14.48;;;1.00;51.00;;;;;;5019076;28;20219;-77
2021/03/08 08:26:12;;;;;;;20.23;14.05;;;1.20;51.00;;;;;;5034337;28;20238;-77
2021/03/08 08:28:40;;;;;;;21.33;13.30;;;1.40;49.30;;;;;;5035204;28;20221;-77
2021/03/08 08:31:07;;;;;;;17.67;13.35;;;1.40;48.10;;;;;;5034367;28;20207;-78
2021/03/08 08:33:34;;;;;;;20.55;13.40;;;1.60;48.00;;;;;;5034674;28;20310;-79
2021/03/08 08:36:14;;;;;;;21.08;13.90;;;1.80;48.00;;;;;;5037247;28;20671;-78
2021/03/08 08:38:43;;;;;;;21.33;13.80;;;1.90;47.90;;;;;;5035331;28;20215;-78
2021/03/08 08:41:24;;;;;;;23.92;14.02;;;2.10;48.80;;;;;;5034819;28;20567;-78
2021/03/08 08:44:28;;;;;;;18.00;13.50;;;2.20;46.90;;;;;;5035639;28;20223;-78
2021/03/08 08:47:31;;;;;;;22.90;14.15;;;2.20;46.90;;;;;;5040018;28;20192;-77
2021/03/08 08:50:00;;;;;;;15.35;12.60;;;2.40;46.80;;;;;;5046765;28;20210;-78
2021/03/08 08:52:51;;;;;;;15.90;11.57;;;2.60;46.40;;;;;;5047798;28;20215;-78
2021/03/08 08:55:20;;;;;;;13.52;10.75;;;2.80;44.00;;;;;;5047142;28;20207;-77
2021/03/08 08:58:23;;;;;;;15.50;11.65;;;2.70;43.90;;;;;;5047353;28;20195;-78
2021/03/08 09:01:32;;;;;;;18.13;11.55;;;2.80;44.00;;;;;;5042305;28;20210;-78
2021/03/08 09:04:00;;;;;;;14.45;10.82;;;3.00;42.80;;;;;;5052233;28;20233;-80
2021/03/08 09:06:48;;;;;;;16.45;11.45;;;3.10;42.10;;;;;;5051320;28;20227;-79
2021/03/08 09:09:16;;;;;;;13.70;10.80;;;3.00;42.60;;;;;;5051220;28;20203;-77
2021/03/08 09:11:44;;;;;;;14.27;11.52;;;3.10;42.20;;;;;;5052720;28;20545;-77
2021/03/08 09:14:34;;;;;;;14.63;11.50;;;3.20;42.70;;;;;;5053316;28;20231;-78
2021/03/08 09:17:09;;;;;;;15.82;11.38;;;3.50;41.20;;;;;;5043988;28;20282;-78
2021/03/08 09:19:36;;;;;;;14.77;10.93;;;3.60;40.90;;;;;;5047691;28;20210;-78
2021/03/08 09:22:44;;;;;;;14.10;10.20;;;3.80;40.00;;;;;;5034303;28;20716;-77
2021/03/08 09:25:20;;;;;;;18.25;10.55;;;3.70;39.90;;;;;;5026952;28;20204;-78
2021/03/08 09:27:47;;;;;;;16.33;10.13;;;3.80;39.90;;;;;;5028505;28;20215;-78
2021/03/08 09:30:18;;;;;;;13.40;9.70;;;3.90;39.30;;;;;;5040792;28;20215;-77
2021/03/08 09:32:51;;;;;;;17.40;10.38;;;4.00;39.40;;;;;;5044270;28;20250;-79
2021/03/08 09:35:18;;;;;;;16.45;9.75;;;4.20;38.70;;;;;;5043646;28;20711;-77
2021/03/08 09:37:47;;;;;;;16.15;11.63;;;4.20;38.50;;;;;;5040093;28;20211;-78
2021/03/08 09:40:19;;;;;;;20.60;13.10;;;4.30;39.40;;;;;;5022641;28;20247;-78
2021/03/08 09:42:45;;;;;;;17.52;11.75;;;4.40;38.80;;;;;;5034797;28;20246;-77
2021/03/08 09:45:18;;;;;;;13.95;11.05;;;4.50;38.80;;;;;;5036218;28;20211;-77
2021/03/08 09:47:45;;;;;;;15.20;10.80;;;4.60;38.30;;;;;;5030694;28;20263;-76
2021/03/08 09:50:18;;;;;;;14.25;10.00;;;4.60;37.90;;;;;;5035939;28;20227;-78
2021/03/08 09:52:46;;;;;;;13.60;10.27;;;4.40;37.60;;;;;;5034048;28;20234;-77
2021/03/08 09:55:16;;;;;;;10.73;9.23;;;4.40;38.30;;;;;;5031436;28;20223;-76
2021/03/08 09:57:44;;;;;;;17.02;10.90;;;4.70;37.60;;;;;;5031049;28;20681;-79
2021/03/08 10:00:13;;;;;;;16.92;10.48;;;5.00;36.10;;;;;;5020281;28;20204;-77
2021/03/08 10:03:12;;;;;;;11.68;8.75;;;5.00;36.10;;;;;;5020485;28;20207;-80
2021/03/08 10:05:41;;;;;;;12.25;9.18;;;4.80;34.90;;;;;;5017551;28;20208;-78
2021/03/08 10:08:08;;;;;;;14.25;8.52;;;4.90;35.70;;;;;;5018890;28;20200;-79
2021/03/08 10:10:41;;;;;;;12.02;8.23;;;4.80;34.40;;;;;;5020278;28;20212;-77
2021/03/08 10:13:08;;;;;;;9.23;6.60;;;4.90;33.20;;;;;;5017692;28;20223;-78
2021/03/08 10:15:44;;;;;;;8.85;7.03;;;4.80;32.40;;;;;;5021724;28;20227;-77
2021/03/08 10:18:12;;;;;;;8.82;6.20;;;4.70;32.30;;;;;;5017664;28;20254;-77
2021/03/08 10:20:48;;;;;;;10.85;6.03;;;4.80;31.30;;;;;;5016975;28;20298;-76
2021/03/08 10:23:16;;;;;;;10.43;6.70;;;5.00;31.90;;;;;;5030301;28;20228;-77
2021/03/08 10:25:43;;;;;;;10.15;7.28;;;5.20;32.10;;;;;;5050984;28;20203;-77
2021/03/08 10:28:10;;;;;;;8.85;6.78;;;5.30;32.60;;;;;;5036957;28;20234;-79
2021/03/08 10:30:37;;;;;;;9.48;6.40;;;5.20;32.10;;;;;;5037076;28;20214;-79
2021/03/08 10:33:05;;;;;;;8.38;6.22;;;5.30;32.00;;;;;;5038713;28;20250;-78
2021/03/08 10:35:35;;;;;;;9.10;7.15;;;5.40;31.80;;;;;;5038440;28;20351;-77
2021/03/08 10:38:02;;;;;;;12.85;6.30;;;5.50;31.60;;;;;;5038078;28;20214;-78
2021/03/08 10:40:30;;;;;;;9.25;5.55;;;5.40;31.60;;;;;;5041398;28;20206;-78
2021/03/08 10:42:58;;;;;;;7.55;5.40;;;5.50;31.30;;;;;;5045225;28;20246;-77
2021/03/08 10:45:25;;;;;;;10.88;5.60;;;5.60;30.20;;;;;;5036938;28;20207;-78
2021/03/08 10:48:09;;;;;;;6.70;5.20;;;5.70;30.60;;;;;;5036819;28;20207;-78
2021/03/08 10:50:46;;;;;;;8.05;6.05;;;5.80;30.00;;;;;;5038336;28;20218;-77
2021/03/08 10:53:13;;;;;;;6.95;4.40;;;5.70;30.00;;;;;;5040728;28;20223;-78
2021/03/08 10:55:40;;;;;;;6.82;5.30;;;5.80;29.60;;;;;;5035080;28;20223;-77
2021/03/08 10:58:07;;;;;;;7.75;5.50;;;5.90;29.60;;;;;;5022695;28;20948;-77
2021/03/08 11:00:35;;;;;;;8.10;5.35;;;5.80;30.50;;;;;;5026346;28;20195;-79
2021/03/08 11:03:02;;;;;;;7.32;4.88;;;5.80;30.10;;;;;;5021984;28;20236;-79
2021/03/08 11:05:30;;;;;;;6.00;5.05;;;6.10;29.80;;;;;;5023397;28;20212;-79
2021/03/08 11:07:57;;;;;;;7.15;5.05;;;6.20;29.40;;;;;;5025129;28;20211;-77
2021/03/08 11:10:38;;;;;;;9.05;5.65;;;6.30;29.10;;;;;;5022078;28;20281;-80
2021/03/08 11:13:07;;;;;;;9.88;6.90;;;6.20;29.60;;;;;;5018713;28;20235;-79
2021/03/08 11:15:36;;;;;;;6.78;5.22;;;6.20;29.90;;;;;;5020189;28;20236;-76
2021/03/08 11:18:03;;;;;;;7.40;5.43;;;6.20;29.30;;;;;;5036403;28;20203;-77
2021/03/08 11:20:31;;;;;;;10.32;5.80;;;6.20;29.20;;;;;;5029087;28;20262;-76
2021/03/08 11:23:01;;;;;;;7.30;5.72;;;6.30;29.50;;;;;;5031831;28;20231;-77
2021/03/08 11:25:33;;;;;;;6.55;5.20;;;6.50;29.30;;;;;;5049975;28;20207;-77
2021/03/08 11:28:00;;;;;;;5.50;4.88;;;6.50;28.10;;;;;;5049982;28;20207;-76
2021/03/08 11:30:28;;;;;;;5.70;4.05;;;6.30;28.80;;;;;;5046119;28;20213;-78
2021/03/08 11:32:56;;;;;;;5.43;4.57;;;6.60;28.10;;;;;;5037253;28;20318;-78
2021/03/08 11:35:25;;;;;;;5.15;4.45;;;6.50;28.10;;;;;;5037024;28;20231;-77
2021/03/08 11:37:55;;;;;;;9.15;4.32;;;6.20;27.90;;;;;;5044102;28;20211;-78
2021/03/08 11:40:23;;;;;;;8.50;4.65;;;6.40;28.00;;;;;;5016167;28;20215;-79
2021/03/08 11:42:50;;;;;;;5.32;4.80;;;6.60;28.10;;;;;;5017569;28;20323;-78
2021/03/08 11:45:18;;;;;;;6.60;5.05;;;6.50;28.10;;;;;;5016555;28;20208;-78
2021/03/08 11:47:44;;;;;;;7.50;5.20;;;6.50;28.10;;;;;;5019353;28;20211;-78
2021/03/08 11:50:12;;;;;;;7.20;4.43;;;6.70;28.20;;;;;;5019243;28;20216;-77
2021/03/08 11:52:39;;;;;;;5.90;4.47;;;6.80;27.60;;;;;;5021547;28;20676;-78
2021/03/08 11:55:07;;;;;;;5.40;4.03;;;6.60;27.60;;;;;;5022664;28;20580;-77
2021/03/08 11:57:34;;;;;;;9.10;4.53;;;6.50;26.90;;;;;;5024047;28;20230;-78
2021/03/08 12:00:00;;;;;;;8.00;4.75;;;6.60;26.40;;;;;;5030866;28;20203;-78
2021/03/08 12:02:27;;;;;;;7.47;4.40;;;6.40;28.00;;;;;;5024857;28;20219;-77
2021/03/08 12:04:53;;;;;;;4.45;3.85;;;6.50;27.50;;;;;;5018551;28;20575;-78
2021/03/08 12:07:20;;;;;;;5.30;3.92;;;6.90;26.30;;;;;;5022772;28;20767;-79
2021/03/08 12:09:46;;;;;;;6.30;4.15;;;7.10;25.20;;;;;;5026090;28;20258;-79
2021/03/08 12:12:13;;;;;;;5.28;4.78;;;7.20;25.30;;;;;;5021121;28;20226;-78
2021/03/08 12:14:40;;;;;;;6.93;4.20;;;7.00;25.20;;;;;;5022514;28;20316;-78
2021/03/08 12:17:07;;;;;;;5.95;4.18;;;7.30;25.00;;;;;;5021063;28;20240;-78
2021/03/08 12:19:33;;;;;;;7.28;4.60;;;6.90;25.30;;;;;;5022269;28;20215;-79
2021/03/08 12:22:00;;;;;;;6.70;4.63;;;7.00;25.80;;;;;;5028378;28;20223;-78
2021/03/08 12:24:26;;;;;;;9.55;4.85;;;7.00;25.70;;;;;;5039861;28;20229;-80
2021/03/08 12:26:54;;;;;;;7.10;4.93;;;7.10;25.30;;;;;;5038994;28;20298;-79
2021/03/08 12:29:20;;;;;;;6.93;5.53;;;7.00;26.10;;;;;;5040068;28;20233;-79
2021/03/08 12:31:48;;;;;;;6.65;5.00;;;7.00;26.10;;;;;;5043178;28;20210;-77
2021/03/08 12:34:14;;;;;;;5.78;4.70;;;7.00;26.00;;;;;;5051732;28;20241;-78
2021/03/08 12:36:40;;;;;;;9.20;5.40;;;7.20;25.80;;;;;;5045120;28;20203;-78
2021/03/08 12:39:07;;;;;;;6.55;4.95;;;7.10;26.30;;;;;;5045930;28;20322;-78
2021/03/08 12:41:34;;;;;;;7.18;5.35;;;7.40;25.30;;;;;;5047256;28;20217;-78
2021/03/08 12:44:00;;;;;;;6.63;4.70;;;7.60;24.90;;;;;;5047766;28;20226;-79
2021/03/08 12:46:27;;;;;;;6.32;3.70;;;7.60;23.80;;;;;;5047872;28;20234;-79
2021/03/08 12:48:54;;;;;;;4.90;3.80;;;7.60;22.70;;;;;;5052418;28;20245;-79
2021/03/08 12:51:21;;;;;;;7.22;5.13;;;7.60;23.00;;;;;;5055300;28;20247;-80